createdAt,value
2018-11-21T00:02:25.460Z,20.07
2018-11-21T00:04:54.377Z,20.90
2018-11-21T00:07:24.090Z,21.60
2018-11-21T00:09:54.385Z,19.30
2018-11-21T00:12:24.455Z,20.13
2018-11-21T00:14:54.330Z,22.33
2018-11-21T00:17:24.066Z,20.43
2018-11-21T00:19:54.027Z,21.67
2018-11-21T00:22:23.745Z,20.87
2018-11-21T00:24:53.521Z,22.03
2018-11-21T00:27:23.578Z,20.53
2018-11-21T00:29:53.243Z,22.40
2018-11-21T00:32:24.777Z,22.63
2018-11-21T00:34:55.598Z,22.30
2018-11-21T00:37:26.047Z,19.20
2018-11-21T00:39:55.763Z,20.73
2018-11-21T00:42:25.862Z,22.30
2018-11-21T00:44:55.513Z,21.07
2018-11-21T00:47:25.232Z,23.83
2018-11-21T00:49:54.954Z,22.40
2018-11-21T00:52:24.763Z,23.70
2018-11-21T00:54:54.494Z,22.30
2018-11-21T00:57:24.350Z,23.90
2018-11-21T00:59:54.378Z,22.47
2018-11-21T01:02:24.125Z,23.30
2018-11-21T01:04:54.522Z,21.70
2018-11-21T01:07:24.316Z,25.40
2018-11-21T01:09:54.045Z,22.87
2018-11-21T01:12:24.172Z,23.10
2018-11-21T01:14:54.680Z,23.80
2018-11-21T01:17:25.763Z,23.27
2018-11-21T01:19:56.217Z,22.37
2018-11-21T01:22:25.956Z,23.30
2018-11-21T01:24:56.007Z,24.83
2018-11-21T01:27:27.319Z,25.07
2018-11-21T01:29:56.194Z,24.07
2018-11-21T01:32:25.949Z,24.10
2018-11-21T01:34:55.956Z,23.73
2018-11-21T01:37:25.707Z,22.53
2018-11-21T01:39:55.741Z,25.30
2018-11-21T01:42:25.549Z,23.07
2018-11-21T01:44:55.215Z,21.53
2018-11-21T01:47:25.308Z,23.93
2018-11-21T01:49:55.059Z,25.50
2018-11-21T01:52:24.843Z,23.60
2018-11-21T01:54:54.587Z,22.93
2018-11-21T01:57:24.329Z,22.40
2018-11-21T01:59:54.527Z,24.40
2018-11-21T02:02:24.207Z,24.57
2018-11-21T02:04:53.964Z,23.47
2018-11-21T02:07:23.731Z,24.80
2018-11-21T02:09:53.887Z,24.50
2018-11-21T02:12:23.631Z,24.33
2018-11-21T02:14:53.794Z,23.43
2018-11-21T02:17:23.736Z,22.20
2018-11-21T02:19:53.449Z,23.93
2018-11-21T02:22:23.224Z,22.73
2018-11-21T02:24:52.968Z,24.33
2018-11-21T02:27:23.155Z,24.03
2018-11-21T02:29:52.972Z,25.67
2018-11-21T02:32:23.006Z,23.60
2018-11-21T02:34:52.812Z,23.90
2018-11-21T02:37:22.594Z,25.57
2018-11-21T02:39:52.673Z,26.43
2018-11-21T02:42:22.759Z,26.73
2018-11-21T02:44:52.553Z,22.33
2018-11-21T02:47:22.533Z,25.03
2018-11-21T02:49:52.267Z,26.17
2018-11-21T02:52:22.074Z,26.77
2018-11-21T02:54:51.829Z,24.80
2018-11-21T02:57:23.965Z,25.50
2018-11-21T02:59:59.676Z,26.23
2018-11-21T03:02:29.409Z,26.20
2018-11-21T03:04:59.202Z,31.27
2018-11-21T03:07:29.304Z,23.90
2018-11-21T03:09:59.051Z,26.43
2018-11-21T03:12:30.618Z,28.73
2018-11-21T03:15:00.771Z,25.60
2018-11-21T03:17:30.525Z,26.53
2018-11-21T03:20:00.513Z,26.23
2018-11-21T03:22:30.557Z,28.90
2018-11-21T03:25:00.633Z,27.87
2018-11-21T03:27:30.760Z,26.63
2018-11-21T03:30:00.576Z,25.20
2018-11-21T03:32:30.924Z,28.20
2018-11-21T03:35:01.028Z,25.30
2018-11-21T03:37:31.481Z,28.37
2018-11-21T03:40:01.241Z,26.70
2018-11-21T03:42:31.383Z,30.97
2018-11-21T03:45:02.216Z,25.30
2018-11-21T03:47:31.899Z,28.07
2018-11-21T03:50:01.656Z,26.83
2018-11-21T03:52:31.802Z,28.83
2018-11-21T03:55:01.608Z,27.83
2018-11-21T03:57:31.765Z,27.60
2018-11-21T04:00:01.911Z,26.77
2018-11-21T04:02:32.216Z,25.87
2018-11-21T04:05:01.979Z,26.50
2018-11-21T04:07:31.720Z,26.90
2018-11-21T04:10:01.527Z,29.20
2018-11-21T04:12:31.296Z,24.50
2018-11-21T04:15:01.145Z,26.80
2018-11-21T04:17:30.831Z,28.47
2018-11-21T04:20:01.268Z,25.93
2018-11-21T04:22:31.012Z,26.40
2018-11-21T04:25:01.071Z,26.27
2018-11-21T04:27:31.114Z,26.97
2018-11-21T04:30:00.927Z,26.27
2018-11-21T04:32:30.924Z,30.73
2018-11-21T04:35:00.721Z,24.30
2018-11-21T04:37:30.483Z,29.03
2018-11-21T04:40:00.592Z,27.43
2018-11-21T04:42:30.338Z,28.30
2018-11-21T04:45:00.157Z,29.83
2018-11-21T04:47:30.244Z,27.07
2018-11-21T04:50:00.246Z,29.60
2018-11-21T04:52:29.991Z,28.70
2018-11-21T04:55:00.080Z,27.63
2018-11-21T04:57:29.848Z,28.43
2018-11-21T04:59:59.660Z,28.43
2018-11-21T05:02:29.593Z,27.33
2018-11-21T05:04:59.381Z,30.83
2018-11-21T05:07:29.506Z,28.90
2018-11-21T05:09:59.265Z,30.47
2018-11-21T05:12:29.564Z,31.20
2018-11-21T05:14:59.371Z,29.33
2018-11-21T05:17:29.068Z,30.57
2018-11-21T05:19:59.074Z,30.57
2018-11-21T05:22:29.075Z,30.80
2018-11-21T05:24:58.812Z,30.57
2018-11-21T05:27:28.585Z,33.00
2018-11-21T05:29:58.659Z,33.53
2018-11-21T05:32:28.605Z,34.47
2018-11-21T05:34:58.375Z,37.27
2018-11-21T05:37:28.108Z,31.07
2018-11-21T05:39:58.203Z,31.80
2018-11-21T05:42:28.245Z,33.40
2018-11-21T05:44:58.107Z,27.63
2018-11-21T05:47:27.779Z,31.87
2018-11-21T05:49:57.635Z,28.57
2018-11-21T05:52:27.407Z,33.77
2018-11-21T05:54:57.785Z,30.70
2018-11-21T05:57:27.414Z,31.03
2018-11-21T05:59:57.313Z,30.95
2018-11-21T06:02:27.291Z,31.67
2018-11-21T06:04:57.307Z,31.83
2018-11-21T06:07:27.420Z,32.07
2018-11-21T06:09:57.516Z,29.63
2018-11-21T06:12:27.266Z,29.30
2018-11-21T06:14:57.487Z,33.77
2018-11-21T06:17:27.146Z,32.43
2018-11-21T06:19:56.888Z,31.07
2018-11-21T06:22:26.660Z,31.37
2018-11-21T06:24:56.422Z,31.77
2018-11-21T06:27:26.191Z,31.27
2018-11-21T06:29:56.257Z,32.67
2018-11-21T06:32:26.307Z,30.73
2018-11-21T06:34:56.326Z,28.60
2018-11-21T06:37:26.087Z,27.90
2018-11-21T06:39:56.244Z,34.13
2018-11-21T06:42:25.978Z,33.20
2018-11-21T06:44:55.811Z,29.20
2018-11-21T06:47:25.523Z,30.80
2018-11-21T06:49:55.260Z,29.37
2018-11-21T06:52:25.332Z,29.43
2018-11-21T06:54:55.099Z,31.73
2018-11-21T06:57:24.863Z,32.57
2018-11-21T06:59:55.470Z,36.37
2018-11-21T07:02:25.219Z,33.93
2018-11-21T07:04:54.970Z,35.20
2018-11-21T07:07:24.763Z,30.83
2018-11-21T07:09:54.781Z,33.50
2018-11-21T07:12:24.592Z,35.20
2018-11-21T07:14:54.422Z,34.90
2018-11-21T07:17:24.521Z,30.40
2018-11-21T07:19:54.285Z,37.73
2018-11-21T07:22:24.059Z,30.77
2018-11-21T07:24:54.075Z,30.60
2018-11-21T07:27:23.898Z,34.93
2018-11-21T07:29:54.256Z,34.77
2018-11-21T07:32:28.377Z,31.93
2018-11-21T07:34:58.482Z,32.37
2018-11-21T07:37:28.236Z,31.37
2018-11-21T07:39:58.416Z,31.83
2018-11-21T07:42:28.232Z,34.20
2018-11-21T07:44:58.475Z,33.80
2018-11-21T07:47:28.152Z,36.80
2018-11-21T07:49:58.316Z,32.03
2018-11-21T07:52:28.091Z,31.70
2018-11-21T07:54:58.205Z,31.60
2018-11-21T07:57:33.792Z,32.40
2018-11-21T08:00:58.877Z,33.30
2018-11-21T08:03:30.651Z,31.63
2018-11-21T08:06:19.859Z,28.23
2018-11-21T08:09:07.336Z,31.03
2018-11-21T08:11:46.565Z,31.30
2018-11-21T08:14:41.454Z,31.33
2018-11-21T08:17:28.751Z,29.97
2018-11-21T08:20:12.343Z,33.83
2018-11-21T08:23:06.589Z,31.47
2018-11-21T08:25:54.197Z,30.60
2018-11-21T08:28:29.591Z,31.57
2018-11-21T08:30:59.420Z,33.78
2018-11-21T08:33:34.211Z,30.00
2018-11-21T08:36:00.759Z,28.70
2018-11-21T08:38:30.515Z,28.77
2018-11-21T08:41:00.335Z,27.80
2018-11-21T08:43:30.102Z,28.47
2018-11-21T08:46:00.194Z,28.77
2018-11-21T08:48:30.256Z,26.03
2018-11-21T08:51:00.023Z,25.53
2018-11-21T08:53:30.036Z,23.77
2018-11-21T08:56:00.466Z,26.43
2018-11-21T08:58:30.338Z,30.57
2018-11-21T09:01:00.162Z,26.30
2018-11-21T09:03:29.940Z,26.63
2018-11-21T09:06:02.393Z,27.17
2018-11-21T09:08:29.446Z,26.40
2018-11-21T09:10:59.223Z,27.93
2018-11-21T09:13:28.970Z,27.73
2018-11-21T09:15:59.010Z,28.67
2018-11-21T09:18:29.070Z,30.77
2018-11-21T09:20:59.101Z,30.10
2018-11-21T09:23:29.281Z,28.30
2018-11-21T09:25:59.022Z,27.47
2018-11-21T09:28:28.788Z,30.13
2018-11-21T09:30:58.552Z,31.17
2018-11-21T09:33:28.309Z,30.30
2018-11-21T09:35:58.948Z,28.07
2018-11-21T09:38:29.077Z,31.33
2018-11-21T09:40:58.845Z,29.03
2018-11-21T09:43:28.627Z,28.83
2018-11-21T09:45:58.379Z,32.70
2018-11-21T09:48:28.177Z,27.67
2018-11-21T09:50:58.256Z,27.37
2018-11-21T09:53:28.014Z,30.33
2018-11-21T09:55:57.773Z,31.00
2018-11-21T09:58:27.564Z,27.77
2018-11-21T10:01:52.282Z,27.73
2018-11-21T10:04:22.594Z,26.63
2018-11-21T10:06:52.912Z,24.90
2018-11-21T10:09:34.294Z,28.40
2018-11-21T10:12:04.036Z,26.77
2018-11-21T10:14:33.839Z,27.67
2018-11-21T10:17:03.645Z,27.73
2018-11-21T10:19:33.945Z,25.43
2018-11-21T10:22:03.707Z,24.33
2018-11-21T10:24:33.755Z,24.03
2018-11-21T10:27:03.505Z,23.87
2018-11-21T10:29:33.779Z,27.53
2018-11-21T10:32:03.538Z,25.90
2018-11-21T10:34:33.379Z,22.33
2018-11-21T10:37:03.132Z,23.00
2018-11-21T10:39:33.182Z,23.57
2018-11-21T10:42:02.939Z,23.07
2018-11-21T10:44:33.039Z,27.20
2018-11-21T10:47:02.831Z,27.97
2018-11-21T10:49:32.580Z,23.30
2018-11-21T10:52:02.636Z,24.50
2018-11-21T10:54:32.396Z,26.03
2018-11-21T10:57:02.170Z,25.77
2018-11-21T10:59:31.927Z,26.67
2018-11-21T11:02:23.921Z,28.33
2018-11-21T11:05:17.466Z,25.83
2018-11-21T11:08:06.346Z,26.93
2018-11-21T11:10:55.190Z,27.57
2018-11-21T11:13:45.617Z,27.23
2018-11-21T11:16:33.395Z,27.07
2018-11-21T11:19:23.610Z,28.70
2018-11-21T11:22:22.346Z,29.13
2018-11-21T11:25:09.619Z,29.00
2018-11-21T11:27:55.055Z,26.23
2018-11-21T11:30:41.488Z,29.30
2018-11-21T11:33:23.511Z,31.33
2018-11-21T11:36:14.221Z,29.20
2018-11-21T11:39:09.223Z,32.27
2018-11-21T11:42:05.659Z,29.10
2018-11-21T11:45:05.846Z,28.27
2018-11-21T11:47:53.266Z,27.40
2018-11-21T11:50:42.139Z,30.83
2018-11-21T11:53:29.521Z,28.37
2018-11-21T11:56:19.272Z,27.90
2018-11-21T11:59:07.490Z,29.20
2018-11-21T12:01:54.774Z,29.70
2018-11-21T12:04:33.642Z,26.13
2018-11-21T12:07:25.522Z,29.50
2018-11-21T12:10:12.986Z,29.83
2018-11-21T12:13:13.517Z,28.60
2018-11-21T12:16:04.350Z,30.07
2018-11-21T12:19:01.817Z,25.60
2018-11-21T12:21:44.323Z,25.93
2018-11-21T12:24:51.384Z,24.97
2018-11-21T12:27:38.910Z,27.30
2018-11-21T12:30:34.966Z,30.63
2018-11-21T12:33:17.556Z,28.40
2018-11-21T12:36:18.583Z,30.77
2018-11-21T12:39:06.551Z,30.80
2018-11-21T12:41:54.008Z,27.10
2018-11-21T12:44:41.814Z,29.53
2018-11-21T12:47:29.326Z,30.73
2018-11-21T12:50:33.827Z,28.23
2018-11-21T12:53:20.798Z,30.83
2018-11-21T12:56:16.460Z,28.90
2018-11-21T12:59:04.381Z,28.23
2018-11-21T13:01:43.477Z,31.67
2018-11-21T13:04:33.691Z,32.93
2018-11-21T13:07:21.631Z,26.27
2018-11-21T13:10:08.988Z,28.97
2018-11-21T13:12:57.042Z,25.73
2018-11-21T13:15:43.645Z,31.27
2018-11-21T13:18:34.043Z,29.27
2018-11-21T13:21:38.303Z,28.23
2018-11-21T13:24:36.420Z,28.50
2018-11-21T13:27:31.615Z,31.20
2018-11-21T13:30:19.469Z,28.13
2018-11-21T13:33:01.607Z,25.67
2018-11-21T13:35:47.511Z,27.30
2018-11-21T13:38:36.018Z,26.57
2018-11-21T13:41:24.026Z,28.77
